sensor_id;sensor_type;location;lat;lon;timestamp;P1;durP1;ratioP1;P2;durP2;ratioP2
51692;SDS011;37777;53.066;21.638;2023-05-13T00:04:25;15.18;;;8.80;;
51692;SDS011;37777;53.066;21.638;2023-05-13T00:11:27;18.15;;;9.43;;
51692;SDS011;37777;53.066;21.638;2023-05-13T00:18:29;16.45;;;8.57;;
51692;SDS011;37777;53.066;21.638;2023-05-13T00:25:32;18.95;;;9.02;;
51692;SDS011;37777;53.066;21.638;2023-05-13T00:32:35;15.90;;;7.82;;
51692;SDS011;37777;53.066;21.638;2023-05-13T00:39:38;11.00;;;6.88;;
51692;SDS011;37777;53.066;21.638;2023-05-13T00:46:39;15.43;;;7.43;;
51692;SDS011;37777;53.066;21.638;2023-05-13T00:53:42;21.63;;;8.02;;
51692;SDS011;37777;53.066;21.638;2023-05-13T01:01:07;15.10;;;7.90;;
51692;SDS011;37777;53.066;21.638;2023-05-13T01:08:28;20.43;;;9.17;;
51692;SDS011;37777;53.066;21.638;2023-05-13T01:15:33;17.50;;;8.47;;
51692;SDS011;37777;53.066;21.638;2023-05-13T01:22:45;15.07;;;9.02;;
51692;SDS011;37777;53.066;21.638;2023-05-13T01:29:47;15.20;;;8.88;;
51692;SDS011;37777;53.066;21.638;2023-05-13T01:36:50;13.88;;;8.52;;
51692;SDS011;37777;53.066;21.638;2023-05-13T01:43:52;19.73;;;9.00;;
51692;SDS011;37777;53.066;21.638;2023-05-13T01:50:54;19.42;;;9.05;;
51692;SDS011;37777;53.066;21.638;2023-05-13T01:57:56;16.98;;;8.57;;
51692;SDS011;37777;53.066;21.638;2023-05-13T02:04:58;18.90;;;8.93;;
51692;SDS011;37777;53.066;21.638;2023-05-13T02:12:00;15.95;;;8.82;;
51692;SDS011;37777;53.066;21.638;2023-05-13T02:19:02;14.77;;;7.80;;
51692;SDS011;37777;53.066;21.638;2023-05-13T02:26:04;16.25;;;8.07;;
51692;SDS011;37777;53.066;21.638;2023-05-13T02:33:07;17.08;;;8.90;;
51692;SDS011;37777;53.066;21.638;2023-05-13T02:40:09;13.75;;;7.80;;
51692;SDS011;37777;53.066;21.638;2023-05-13T02:47:11;15.35;;;7.40;;
51692;SDS011;37777;53.066;21.638;2023-05-13T02:54:13;12.82;;;7.00;;
51692;SDS011;37777;53.066;21.638;2023-05-13T03:01:15;13.27;;;6.72;;
51692;SDS011;37777;53.066;21.638;2023-05-13T03:08:17;15.90;;;7.25;;
51692;SDS011;37777;53.066;21.638;2023-05-13T03:15:20;11.32;;;6.82;;
51692;SDS011;37777;53.066;21.638;2023-05-13T03:22:23;10.82;;;6.82;;
51692;SDS011;37777;53.066;21.638;2023-05-13T03:29:25;12.38;;;6.60;;
51692;SDS011;37777;53.066;21.638;2023-05-13T03:36:27;8.77;;;6.70;;
51692;SDS011;37777;53.066;21.638;2023-05-13T03:43:29;13.32;;;7.22;;
51692;SDS011;37777;53.066;21.638;2023-05-13T03:50:31;12.77;;;7.68;;
51692;SDS011;37777;53.066;21.638;2023-05-13T03:57:33;16.42;;;6.88;;
51692;SDS011;37777;53.066;21.638;2023-05-13T04:04:35;9.77;;;7.32;;
51692;SDS011;37777;53.066;21.638;2023-05-13T04:11:37;11.77;;;7.30;;
51692;SDS011;37777;53.066;21.638;2023-05-13T04:18:39;11.45;;;7.28;;
51692;SDS011;37777;53.066;21.638;2023-05-13T04:25:41;11.32;;;7.03;;
51692;SDS011;37777;53.066;21.638;2023-05-13T04:32:43;10.80;;;6.63;;
51692;SDS011;37777;53.066;21.638;2023-05-13T04:39:46;10.88;;;6.47;;
51692;SDS011;37777;53.066;21.638;2023-05-13T04:46:48;10.50;;;7.10;;
51692;SDS011;37777;53.066;21.638;2023-05-13T04:53:50;10.13;;;6.38;;
51692;SDS011;37777;53.066;21.638;2023-05-13T05:00:52;10.15;;;6.15;;
51692;SDS011;37777;53.066;21.638;2023-05-13T05:07:55;15.23;;;6.07;;
51692;SDS011;37777;53.066;21.638;2023-05-13T05:14:57;9.32;;;6.47;;
51692;SDS011;37777;53.066;21.638;2023-05-13T05:21:59;9.27;;;6.20;;
51692;SDS011;37777;53.066;21.638;2023-05-13T05:29:01;11.98;;;5.65;;
51692;SDS011;37777;53.066;21.638;2023-05-13T05:36:03;14.68;;;6.03;;
51692;SDS011;37777;53.066;21.638;2023-05-13T05:43:05;10.20;;;5.50;;
51692;SDS011;37777;53.066;21.638;2023-05-13T05:50:08;9.77;;;5.88;;
51692;SDS011;37777;53.066;21.638;2023-05-13T05:57:10;9.88;;;5.80;;
51692;SDS011;37777;53.066;21.638;2023-05-13T06:04:12;11.00;;;5.10;;
51692;SDS011;37777;53.066;21.638;2023-05-13T06:11:14;9.38;;;5.25;;
51692;SDS011;37777;53.066;21.638;2023-05-13T06:18:18;9.88;;;5.00;;
51692;SDS011;37777;53.066;21.638;2023-05-13T06:25:21;9.30;;;5.05;;
51692;SDS011;37777;53.066;21.638;2023-05-13T06:32:23;8.68;;;4.43;;
51692;SDS011;37777;53.066;21.638;2023-05-13T06:39:25;6.70;;;4.22;;
51692;SDS011;37777;53.066;21.638;2023-05-13T06:46:27;5.15;;;4.25;;
51692;SDS011;37777;53.066;21.638;2023-05-13T06:53:29;5.03;;;3.88;;
51692;SDS011;37777;53.066;21.638;2023-05-13T07:00:35;5.70;;;3.58;;
51692;SDS011;37777;53.066;21.638;2023-05-13T07:07:41;3.85;;;3.45;;
51692;SDS011;37777;53.066;21.638;2023-05-13T07:14:43;8.57;;;3.63;;
51692;SDS011;37777;53.066;21.638;2023-05-13T07:21:45;6.85;;;3.55;;
51692;SDS011;37777;53.066;21.638;2023-05-13T07:28:48;4.63;;;3.50;;
51692;SDS011;37777;53.066;21.638;2023-05-13T07:35:51;4.13;;;3.10;;
51692;SDS011;37777;53.066;21.638;2023-05-13T07:42:53;7.35;;;3.30;;
51692;SDS011;37777;53.066;21.638;2023-05-13T07:49:56;4.00;;;3.05;;
51692;SDS011;37777;53.066;21.638;2023-05-13T07:56:58;5.20;;;3.03;;
51692;SDS011;37777;53.066;21.638;2023-05-13T08:04:00;4.50;;;2.97;;
51692;SDS011;37777;53.066;21.638;2023-05-13T08:11:03;4.68;;;3.35;;
51692;SDS011;37777;53.066;21.638;2023-05-13T08:18:06;4.50;;;3.22;;
51692;SDS011;37777;53.066;21.638;2023-05-13T08:25:09;6.35;;;3.17;;
51692;SDS011;37777;53.066;21.638;2023-05-13T08:32:15;6.82;;;2.92;;
51692;SDS011;37777;53.066;21.638;2023-05-13T08:39:17;7.68;;;2.38;;
51692;SDS011;37777;53.066;21.638;2023-05-13T08:46:19;3.53;;;2.33;;
51692;SDS011;37777;53.066;21.638;2023-05-13T08:53:25;2.50;;;2.30;;
51692;SDS011;37777;53.066;21.638;2023-05-13T09:00:28;3.20;;;2.47;;
51692;SDS011;37777;53.066;21.638;2023-05-13T09:07:31;6.03;;;2.63;;
51692;SDS011;37777;53.066;21.638;2023-05-13T09:14:33;10.00;;;2.40;;
51692;SDS011;37777;53.066;21.638;2023-05-13T09:21:35;4.13;;;2.42;;
51692;SDS011;37777;53.066;21.638;2023-05-13T09:28:37;8.15;;;2.30;;
51692;SDS011;37777;53.066;21.638;2023-05-13T09:35:43;3.80;;;2.20;;
51692;SDS011;37777;53.066;21.638;2023-05-13T09:42:49;4.28;;;2.15;;
51692;SDS011;37777;53.066;21.638;2023-05-13T09:49:54;3.13;;;2.30;;
51692;SDS011;37777;53.066;21.638;2023-05-13T09:56:57;2.75;;;2.40;;
51692;SDS011;37777;53.066;21.638;2023-05-13T10:04:01;2.45;;;2.00;;
51692;SDS011;37777;53.066;21.638;2023-05-13T10:11:06;5.63;;;1.95;;
51692;SDS011;37777;53.066;21.638;2023-05-13T10:18:09;2.83;;;2.30;;
51692;SDS011;37777;53.066;21.638;2023-05-13T10:25:12;6.03;;;2.30;;
51692;SDS011;37777;53.066;21.638;2023-05-13T10:32:14;3.60;;;2.25;;
51692;SDS011;37777;53.066;21.638;2023-05-13T10:46:27;3.28;;;2.45;;
51692;SDS011;37777;53.066;21.638;2023-05-13T10:53:30;3.63;;;2.50;;
51692;SDS011;37777;53.066;21.638;2023-05-13T11:00:33;4.10;;;2.50;;
51692;SDS011;37777;53.066;21.638;2023-05-13T11:07:38;3.08;;;2.38;;
51692;SDS011;37777;53.066;21.638;2023-05-13T11:14:40;3.00;;;2.38;;
51692;SDS011;37777;53.066;21.638;2023-05-13T11:21:46;3.60;;;2.50;;
51692;SDS011;37777;53.066;21.638;2023-05-13T11:29:03;6.22;;;2.85;;
51692;SDS011;37777;53.066;21.638;2023-05-13T11:36:06;4.10;;;2.30;;
51692;SDS011;37777;53.066;21.638;2023-05-13T11:43:09;4.78;;;2.50;;
51692;SDS011;37777;53.066;21.638;2023-05-13T11:57:21;58.73;;;3.10;;
51692;SDS011;37777;53.066;21.638;2023-05-13T12:04:28;3.42;;;1.90;;
51692;SDS011;37777;53.066;21.638;2023-05-13T12:11:31;2.95;;;2.53;;
51692;SDS011;37777;53.066;21.638;2023-05-13T12:18:35;4.10;;;2.20;;
51692;SDS011;37777;53.066;21.638;2023-05-13T12:25:47;3.17;;;1.90;;
51692;SDS011;37777;53.066;21.638;2023-05-13T12:32:51;2.53;;;1.70;;
51692;SDS011;37777;53.066;21.638;2023-05-13T12:40:08;2.20;;;1.70;;
51692;SDS011;37777;53.066;21.638;2023-05-13T12:47:12;5.57;;;1.88;;
51692;SDS011;37777;53.066;21.638;2023-05-13T12:54:16;2.83;;;2.05;;
51692;SDS011;37777;53.066;21.638;2023-05-13T13:01:18;3.53;;;2.10;;
51692;SDS011;37777;53.066;21.638;2023-05-13T13:08:20;24.95;;;3.85;;
51692;SDS011;37777;53.066;21.638;2023-05-13T13:15:22;6.25;;;2.13;;
51692;SDS011;37777;53.066;21.638;2023-05-13T13:22:25;4.57;;;2.55;;
51692;SDS011;37777;53.066;21.638;2023-05-13T13:29:28;5.10;;;2.17;;
51692;SDS011;37777;53.066;21.638;2023-05-13T13:36:30;3.80;;;2.00;;
51692;SDS011;37777;53.066;21.638;2023-05-13T13:43:35;5.30;;;2.20;;
51692;SDS011;37777;53.066;21.638;2023-05-13T13:50:37;2.88;;;2.13;;
51692;SDS011;37777;53.066;21.638;2023-05-13T13:57:39;7.20;;;2.17;;
51692;SDS011;37777;53.066;21.638;2023-05-13T14:04:41;5.38;;;2.10;;
51692;SDS011;37777;53.066;21.638;2023-05-13T14:11:43;3.88;;;2.00;;
51692;SDS011;37777;53.066;21.638;2023-05-13T14:18:45;6.10;;;2.10;;
51692;SDS011;37777;53.066;21.638;2023-05-13T14:25:47;2.85;;;2.10;;
51692;SDS011;37777;53.066;21.638;2023-05-13T14:32:52;2.83;;;2.30;;
51692;SDS011;37777;53.066;21.638;2023-05-13T14:39:54;13.65;;;6.22;;
51692;SDS011;37777;53.066;21.638;2023-05-13T14:46:56;5.32;;;2.15;;
51692;SDS011;37777;53.066;21.638;2023-05-13T14:53:59;3.15;;;1.98;;
51692;SDS011;37777;53.066;21.638;2023-05-13T15:01:01;7.75;;;2.50;;
51692;SDS011;37777;53.066;21.638;2023-05-13T15:08:03;3.08;;;2.05;;
51692;SDS011;37777;53.066;21.638;2023-05-13T15:15:05;2.40;;;2.20;;
51692;SDS011;37777;53.066;21.638;2023-05-13T15:22:08;5.90;;;2.03;;
51692;SDS011;37777;53.066;21.638;2023-05-13T15:29:10;4.70;;;2.30;;
51692;SDS011;37777;53.066;21.638;2023-05-13T15:36:12;3.58;;;1.95;;
51692;SDS011;37777;53.066;21.638;2023-05-13T15:43:14;2.75;;;2.00;;
51692;SDS011;37777;53.066;21.638;2023-05-13T15:50:16;4.00;;;2.28;;
51692;SDS011;37777;53.066;21.638;2023-05-13T15:57:19;4.68;;;2.00;;
51692;SDS011;37777;53.066;21.638;2023-05-13T16:04:21;4.38;;;2.03;;
51692;SDS011;37777;53.066;21.638;2023-05-13T16:11:23;2.30;;;2.10;;
51692;SDS011;37777;53.066;21.638;2023-05-13T16:18:25;12.82;;;3.95;;
51692;SDS011;37777;53.066;21.638;2023-05-13T16:25:27;8.20;;;4.10;;
51692;SDS011;37777;53.066;21.638;2023-05-13T16:32:29;35.08;;;3.78;;
51692;SDS011;37777;53.066;21.638;2023-05-13T16:39:31;4.97;;;3.20;;
51692;SDS011;37777;53.066;21.638;2023-05-13T16:46:33;8.93;;;4.40;;
51692;SDS011;37777;53.066;21.638;2023-05-13T16:53:36;9.68;;;4.57;;
51692;SDS011;37777;53.066;21.638;2023-05-13T17:00:38;5.35;;;3.10;;
51692;SDS011;37777;53.066;21.638;2023-05-13T17:07:40;7.85;;;4.07;;
51692;SDS011;37777;53.066;21.638;2023-05-13T17:14:42;14.45;;;4.97;;
51692;SDS011;37777;53.066;21.638;2023-05-13T17:21:45;17.60;;;3.30;;
51692;SDS011;37777;53.066;21.638;2023-05-13T17:28:47;12.55;;;4.43;;
51692;SDS011;37777;53.066;21.638;2023-05-13T17:35:50;9.05;;;3.83;;
51692;SDS011;37777;53.066;21.638;2023-05-13T17:42:53;10.38;;;5.38;;
51692;SDS011;37777;53.066;21.638;2023-05-13T17:49:55;8.63;;;5.00;;
51692;SDS011;37777;53.066;21.638;2023-05-13T17:56:57;12.25;;;4.30;;
51692;SDS011;37777;53.066;21.638;2023-05-13T18:04:00;10.38;;;4.32;;
51692;SDS011;37777;53.066;21.638;2023-05-13T18:11:02;10.77;;;4.50;;
51692;SDS011;37777;53.066;21.638;2023-05-13T18:18:06;10.20;;;4.53;;
51692;SDS011;37777;53.066;21.638;2023-05-13T18:25:08;13.88;;;5.63;;
51692;SDS011;37777;53.066;21.638;2023-05-13T18:32:10;15.55;;;5.18;;
51692;SDS011;37777;53.066;21.638;2023-05-13T18:39:12;14.77;;;5.47;;
51692;SDS011;37777;53.066;21.638;2023-05-13T18:46:16;9.18;;;5.38;;
51692;SDS011;37777;53.066;21.638;2023-05-13T18:53:18;9.25;;;4.82;;
51692;SDS011;37777;53.066;21.638;2023-05-13T19:00:20;9.55;;;5.18;;
51692;SDS011;37777;53.066;21.638;2023-05-13T19:07:23;9.32;;;5.38;;
51692;SDS011;37777;53.066;21.638;2023-05-13T19:14:25;16.05;;;6.20;;
51692;SDS011;37777;53.066;21.638;2023-05-13T19:21:26;11.00;;;5.70;;
51692;SDS011;37777;53.066;21.638;2023-05-13T19:28:28;13.90;;;5.70;;
51692;SDS011;37777;53.066;21.638;2023-05-13T19:35:31;11.60;;;6.22;;
51692;SDS011;37777;53.066;21.638;2023-05-13T19:42:34;15.48;;;7.03;;
51692;SDS011;37777;53.066;21.638;2023-05-13T19:49:36;20.13;;;7.68;;
51692;SDS011;37777;53.066;21.638;2023-05-13T19:56:39;15.98;;;7.40;;
51692;SDS011;37777;53.066;21.638;2023-05-13T20:03:42;16.65;;;7.65;;
51692;SDS011;37777;53.066;21.638;2023-05-13T20:10:44;20.88;;;8.98;;
51692;SDS011;37777;53.066;21.638;2023-05-13T20:17:48;13.27;;;7.78;;
51692;SDS011;37777;53.066;21.638;2023-05-13T20:24:51;17.15;;;6.78;;
51692;SDS011;37777;53.066;21.638;2023-05-13T20:31:54;18.90;;;7.72;;
51692;SDS011;37777;53.066;21.638;2023-05-13T20:38:56;18.83;;;9.75;;
51692;SDS011;37777;53.066;21.638;2023-05-13T20:46:00;14.07;;;7.90;;
51692;SDS011;37777;53.066;21.638;2023-05-13T20:53:03;15.93;;;7.95;;
51692;SDS011;37777;53.066;21.638;2023-05-13T21:00:05;13.02;;;7.30;;
51692;SDS011;37777;53.066;21.638;2023-05-13T21:07:07;12.10;;;7.07;;
51692;SDS011;37777;53.066;21.638;2023-05-13T21:14:10;19.17;;;7.32;;
51692;SDS011;37777;53.066;21.638;2023-05-13T21:21:12;11.02;;;6.85;;
51692;SDS011;37777;53.066;21.638;2023-05-13T21:28:15;24.65;;;7.85;;
51692;SDS011;37777;53.066;21.638;2023-05-13T21:35:20;13.02;;;7.22;;
51692;SDS011;37777;53.066;21.638;2023-05-13T21:42:22;13.68;;;7.43;;
51692;SDS011;37777;53.066;21.638;2023-05-13T21:49:24;16.88;;;6.85;;
51692;SDS011;37777;53.066;21.638;2023-05-13T21:56:26;13.23;;;7.10;;
51692;SDS011;37777;53.066;21.638;2023-05-13T22:03:28;12.65;;;6.85;;
51692;SDS011;37777;53.066;21.638;2023-05-13T22:10:30;12.57;;;7.50;;
51692;SDS011;37777;53.066;21.638;2023-05-13T22:17:32;12.02;;;7.38;;
51692;SDS011;37777;53.066;21.638;2023-05-13T22:24:35;14.48;;;7.38;;
51692;SDS011;37777;53.066;21.638;2023-05-13T22:31:37;19.45;;;8.00;;
51692;SDS011;37777;53.066;21.638;2023-05-13T22:38:40;12.98;;;7.03;;
51692;SDS011;37777;53.066;21.638;2023-05-13T22:45:42;11.82;;;7.40;;
51692;SDS011;37777;53.066;21.638;2023-05-13T22:52:44;11.45;;;8.07;;
51692;SDS011;37777;53.066;21.638;2023-05-13T22:59:46;13.23;;;8.60;;
51692;SDS011;37777;53.066;21.638;2023-05-13T23:06:48;18.35;;;9.30;;
51692;SDS011;37777;53.066;21.638;2023-05-13T23:13:50;14.75;;;8.85;;
51692;SDS011;37777;53.066;21.638;2023-05-13T23:20:52;11.88;;;8.27;;
51692;SDS011;37777;53.066;21.638;2023-05-13T23:27:56;15.55;;;8.07;;
51692;SDS011;37777;53.066;21.638;2023-05-13T23:34:58;18.67;;;9.15;;
51692;SDS011;37777;53.066;21.638;2023-05-13T23:42:01;17.58;;;9.60;;
51692;SDS011;37777;53.066;21.638;2023-05-13T23:49:03;11.25;;;7.80;;
51692;SDS011;37777;53.066;21.638;2023-05-13T23:56:05;13.60;;;9.23;;
